sensor_id;sensor_type;location;lat;lon;timestamp;pressure;altitude;pressure_sealevel;temperature;humidity
48204;BME280;33994;50.998;5.864;2023-04-30T00:02:50;101736.63;;;9.37;89.48
48204;BME280;33994;50.998;5.864;2023-04-30T00:05:53;101738.34;;;9.34;89.58
48204;BME280;33994;50.998;5.864;2023-04-30T00:08:56;101731.41;;;9.34;89.24
48204;BME280;33994;50.998;5.864;2023-04-30T00:12:01;101739.25;;;9.34;89.45
48204;BME280;33994;50.998;5.864;2023-04-30T00:15:05;101739.22;;;9.31;89.55
48204;BME280;33994;50.998;5.864;2023-04-30T00:18:08;101734.00;;;9.31;89.48
48204;BME280;33994;50.998;5.864;2023-04-30T00:21:12;101737.47;;;9.29;89.31
48204;BME280;33994;50.998;5.864;2023-04-30T00:24:15;101730.44;;;9.23;89.36
48204;BME280;33994;50.998;5.864;2023-04-30T00:27:19;101743.50;;;9.23;89.52
48204;BME280;33994;50.998;5.864;2023-04-30T00:30:23;101743.50;;;9.23;89.20
48204;BME280;33994;50.998;5.864;2023-04-30T00:33:26;101737.41;;;9.24;88.45
48204;BME280;33994;50.998;5.864;2023-04-30T00:36:29;101746.13;;;9.23;88.10
48204;BME280;33994;50.998;5.864;2023-04-30T00:39:32;101740.91;;;9.23;87.69
48204;BME280;33994;50.998;5.864;2023-04-30T00:42:37;101742.59;;;9.21;87.44
48204;BME280;33994;50.998;5.864;2023-04-30T00:45:40;101749.56;;;9.22;87.37
48204;BME280;33994;50.998;5.864;2023-04-30T00:48:43;101748.69;;;9.20;87.16
48204;BME280;33994;50.998;5.864;2023-04-30T00:51:46;101749.56;;;9.16;87.15
48204;BME280;33994;50.998;5.864;2023-04-30T00:54:49;101748.66;;;9.12;86.91
48204;BME280;33994;50.998;5.864;2023-04-30T00:57:54;101746.88;;;9.07;86.85
48204;BME280;33994;50.998;5.864;2023-04-30T01:00:58;101739.03;;;9.00;86.87
48204;BME280;33994;50.998;5.864;2023-04-30T01:04:01;101739.00;;;8.97;86.93
48204;BME280;33994;50.998;5.864;2023-04-30T01:07:05;101738.09;;;8.92;86.83
48204;BME280;33994;50.998;5.864;2023-04-30T01:10:08;101730.22;;;8.86;86.98
48204;BME280;33994;50.998;5.864;2023-04-30T01:13:17;101728.47;;;8.82;86.87
48204;BME280;33994;50.998;5.864;2023-04-30T01:16:23;101738.88;;;8.79;86.92
48204;BME280;33994;50.998;5.864;2023-04-30T01:19:35;101731.88;;;8.75;87.04
48204;BME280;33994;50.998;5.864;2023-04-30T01:22:45;101729.22;;;8.69;86.82
48204;BME280;33994;50.998;5.864;2023-04-30T01:26:04;101733.50;;;8.61;86.82
48204;BME280;33994;50.998;5.864;2023-04-30T01:29:15;101729.16;;;8.60;86.73
48204;BME280;33994;50.998;5.864;2023-04-30T01:32:19;101721.28;;;8.52;86.62
48204;BME280;33994;50.998;5.864;2023-04-30T01:35:33;101728.25;;;8.51;86.67
48204;BME280;33994;50.998;5.864;2023-04-30T01:38:55;101727.28;;;8.42;86.53
48204;BME280;33994;50.998;5.864;2023-04-30T01:42:06;101730.72;;;8.36;86.78
48204;BME280;33994;50.998;5.864;2023-04-30T01:45:27;101730.75;;;8.41;86.70
48204;BME280;33994;50.998;5.864;2023-04-30T01:48:40;101728.16;;;8.42;86.29
48204;BME280;33994;50.998;5.864;2023-04-30T01:51:46;101731.59;;;8.35;86.53
48204;BME280;33994;50.998;5.864;2023-04-30T01:54:52;101726.28;;;8.26;86.69
48204;BME280;33994;50.998;5.864;2023-04-30T01:57:59;101739.28;;;8.21;86.82
48204;BME280;33994;50.998;5.864;2023-04-30T02:01:04;101736.59;;;8.14;86.94
48204;BME280;33994;50.998;5.864;2023-04-30T02:04:07;101740.06;;;8.13;87.08
48204;BME280;33994;50.998;5.864;2023-04-30T02:07:11;101734.94;;;8.20;86.77
48204;BME280;33994;50.998;5.864;2023-04-30T02:10:15;101738.41;;;8.22;86.51
48204;BME280;33994;50.998;5.864;2023-04-30T02:13:19;101744.44;;;8.17;86.50
48204;BME280;33994;50.998;5.864;2023-04-30T02:16:24;101740.91;;;8.10;86.70
48204;BME280;33994;50.998;5.864;2023-04-30T02:19:27;101739.13;;;8.08;86.50
48204;BME280;33994;50.998;5.864;2023-04-30T02:22:30;101736.56;;;8.11;86.42
48204;BME280;33994;50.998;5.864;2023-04-30T02:25:33;101740.91;;;8.10;86.31
48204;BME280;33994;50.998;5.864;2023-04-30T02:28:36;101746.94;;;8.05;86.49
48204;BME280;33994;50.998;5.864;2023-04-30T02:31:41;101748.56;;;7.95;86.77
48204;BME280;33994;50.998;5.864;2023-04-30T02:34:44;101746.69;;;7.83;86.94
48204;BME280;33994;50.998;5.864;2023-04-30T02:37:47;101743.16;;;7.75;87.54
48204;BME280;33994;50.998;5.864;2023-04-30T02:40:51;101747.44;;;7.73;87.64
48204;BME280;33994;50.998;5.864;2023-04-30T02:43:54;101744.06;;;7.78;87.59
48204;BME280;33994;50.998;5.864;2023-04-30T02:46:58;101745.78;;;7.81;87.34
48204;BME280;33994;50.998;5.864;2023-04-30T02:50:01;101742.25;;;7.73;87.44
48204;BME280;33994;50.998;5.864;2023-04-30T02:53:05;101736.06;;;7.63;87.65
48204;BME280;33994;50.998;5.864;2023-04-30T02:56:08;101741.19;;;7.56;88.03
48204;BME280;33994;50.998;5.864;2023-04-30T02:59:11;101735.06;;;7.53;88.06
48204;BME280;33994;50.998;5.864;2023-04-30T03:02:16;101735.94;;;7.52;88.54
48204;BME280;33994;50.998;5.864;2023-04-30T03:05:19;101725.56;;;7.56;88.04
48204;BME280;33994;50.998;5.864;2023-04-30T03:08:22;101721.22;;;7.58;87.88
48204;BME280;33994;50.998;5.864;2023-04-30T03:11:25;101716.03;;;7.56;88.05
48204;BME280;33994;50.998;5.864;2023-04-30T03:14:28;101721.19;;;7.51;88.12
48204;BME280;33994;50.998;5.864;2023-04-30T03:17:33;101728.91;;;7.45;88.20
48204;BME280;33994;50.998;5.864;2023-04-30T03:20:36;101724.63;;;7.50;88.10
48204;BME280;33994;50.998;5.864;2023-04-30T03:23:39;101722.09;;;7.57;87.78
48204;BME280;33994;50.998;5.864;2023-04-30T03:26:42;101717.78;;;7.59;87.63
48204;BME280;33994;50.998;5.864;2023-04-30T03:29:45;101731.56;;;7.48;87.93
48204;BME280;33994;50.998;5.864;2023-04-30T03:32:50;101728.91;;;7.45;88.12
48204;BME280;33994;50.998;5.864;2023-04-30T03:35:53;101731.56;;;7.48;88.24
48204;BME280;33994;50.998;5.864;2023-04-30T03:38:56;101737.47;;;7.38;88.46
48204;BME280;33994;50.998;5.864;2023-04-30T03:41:59;101740.81;;;7.31;88.29
48204;BME280;33994;50.998;5.864;2023-04-30T03:45:03;101744.19;;;7.21;88.80
48204;BME280;33994;50.998;5.864;2023-04-30T03:48:08;101748.41;;;7.14;89.01
48204;BME280;33994;50.998;5.864;2023-04-30T03:51:11;101754.53;;;7.18;88.85
48204;BME280;33994;50.998;5.864;2023-04-30T03:54:14;101747.59;;;7.17;89.06
48204;BME280;33994;50.998;5.864;2023-04-30T03:57:17;101745.72;;;7.06;89.51
48204;BME280;33994;50.998;5.864;2023-04-30T04:00:20;101758.59;;;6.99;89.67
48204;BME280;33994;50.998;5.864;2023-04-30T04:03:25;101754.16;;;6.90;90.04
48204;BME280;33994;50.998;5.864;2023-04-30T04:06:28;101746.25;;;6.84;90.81
48204;BME280;33994;50.998;5.864;2023-04-30T04:09:32;101752.38;;;6.88;90.85
48204;BME280;33994;50.998;5.864;2023-04-30T04:12:37;101759.38;;;6.93;90.66
48204;BME280;33994;50.998;5.864;2023-04-30T04:15:40;101754.16;;;6.93;90.41
48204;BME280;33994;50.998;5.864;2023-04-30T04:18:45;101749.84;;;6.92;90.10
48204;BME280;33994;50.998;5.864;2023-04-30T04:21:48;101741.97;;;6.88;90.25
48204;BME280;33994;50.998;5.864;2023-04-30T04:24:51;101741.97;;;6.86;90.03
48204;BME280;33994;50.998;5.864;2023-04-30T04:27:54;101752.47;;;6.95;90.05
48204;BME280;33994;50.998;5.864;2023-04-30T04:30:58;101761.03;;;6.88;89.58
48204;BME280;33994;50.998;5.864;2023-04-30T04:34:03;101761.75;;;6.78;90.12
48204;BME280;33994;50.998;5.864;2023-04-30T04:37:06;101752.19;;;6.77;90.31
48204;BME280;33994;50.998;5.864;2023-04-30T04:40:09;101761.84;;;6.84;90.17
48204;BME280;33994;50.998;5.864;2023-04-30T04:43:13;101760.91;;;6.79;90.40
48204;BME280;33994;50.998;5.864;2023-04-30T04:46:16;101765.25;;;6.81;90.60
48204;BME280;33994;50.998;5.864;2023-04-30T04:49:21;101775.81;;;6.91;90.59
48204;BME280;33994;50.998;5.864;2023-04-30T04:52:23;101768.94;;;6.94;90.66
48204;BME280;33994;50.998;5.864;2023-04-30T04:55:27;101775.84;;;6.92;90.72
48204;BME280;33994;50.998;5.864;2023-04-30T04:58:30;101775.13;;;7.02;90.67
48204;BME280;33994;50.998;5.864;2023-04-30T05:01:33;101774.25;;;7.63;89.80
48204;BME280;33994;50.998;5.864;2023-04-30T05:04:38;101774.09;;;8.30;86.89
48204;BME280;33994;50.998;5.864;2023-04-30T05:07:41;101767.41;;;8.61;84.98
48204;BME280;33994;50.998;5.864;2023-04-30T05:10:44;101771.13;;;8.89;83.63
48204;BME280;33994;50.998;5.864;2023-04-30T05:13:47;101769.78;;;9.54;81.58
48204;BME280;33994;50.998;5.864;2023-04-30T05:16:51;101767.25;;;9.69;79.73
48204;BME280;33994;50.998;5.864;2023-04-30T05:19:55;101765.53;;;9.77;79.21
48204;BME280;33994;50.998;5.864;2023-04-30T05:22:59;101762.06;;;9.93;78.47
48204;BME280;33994;50.998;5.864;2023-04-30T05:26:02;101774.31;;;10.10;77.78
48204;BME280;33994;50.998;5.864;2023-04-30T05:29:05;101773.44;;;10.00;77.82
48204;BME280;33994;50.998;5.864;2023-04-30T05:32:08;101769.00;;;9.82;78.41
48204;BME280;33994;50.998;5.864;2023-04-30T05:35:13;101769.78;;;9.55;78.98
48204;BME280;33994;50.998;5.864;2023-04-30T05:38:16;101758.38;;;9.35;79.30
48204;BME280;33994;50.998;5.864;2023-04-30T05:41:20;101767.91;;;9.28;80.23
48204;BME280;33994;50.998;5.864;2023-04-30T05:44:23;101768.88;;;9.42;80.46
48204;BME280;33994;50.998;5.864;2023-04-30T05:47:26;101768.91;;;9.52;80.08
48204;BME280;33994;50.998;5.864;2023-04-30T05:50:31;101774.91;;;9.32;79.86
48204;BME280;33994;50.998;5.864;2023-04-30T05:53:34;101781.72;;;9.13;81.00
48204;BME280;33994;50.998;5.864;2023-04-30T05:56:37;101782.63;;;9.20;81.41
48204;BME280;33994;50.998;5.864;2023-04-30T05:59:40;101780.13;;;9.32;81.52
48204;BME280;33994;50.998;5.864;2023-04-30T06:02:43;101788.06;;;9.51;80.89
48204;BME280;33994;50.998;5.864;2023-04-30T06:05:48;101791.53;;;9.49;80.76
48204;BME280;33994;50.998;5.864;2023-04-30T06:08:51;101787.28;;;9.73;80.62
48204;BME280;33994;50.998;5.864;2023-04-30T06:11:55;101784.72;;;9.90;79.93
48204;BME280;33994;50.998;5.864;2023-04-30T06:14:58;101788.25;;;10.06;79.36
48204;BME280;33994;50.998;5.864;2023-04-30T06:18:01;101792.63;;;10.08;79.18
48204;BME280;33994;50.998;5.864;2023-04-30T06:21:06;101795.16;;;9.94;79.35
48204;BME280;33994;50.998;5.864;2023-04-30T06:24:09;101787.38;;;10.08;79.67
48204;BME280;33994;50.998;5.864;2023-04-30T06:27:12;101788.31;;;10.30;79.13
48204;BME280;33994;50.998;5.864;2023-04-30T06:30:15;101788.31;;;10.45;78.83
48204;BME280;33994;50.998;5.864;2023-04-30T06:33:18;101782.19;;;10.43;78.24
48204;BME280;33994;50.998;5.864;2023-04-30T06:36:23;101785.69;;;10.38;78.69
48204;BME280;33994;50.998;5.864;2023-04-30T06:39:26;101780.47;;;10.50;78.44
48204;BME280;33994;50.998;5.864;2023-04-30T06:42:29;101781.34;;;10.47;78.53
48204;BME280;33994;50.998;5.864;2023-04-30T06:45:32;101781.34;;;10.66;78.20
48204;BME280;33994;50.998;5.864;2023-04-30T06:48:35;101783.09;;;10.85;77.46
48204;BME280;33994;50.998;5.864;2023-04-30T06:51:41;101777.88;;;10.79;77.77
48204;BME280;33994;50.998;5.864;2023-04-30T06:54:44;101778.75;;;11.00;77.16
48204;BME280;33994;50.998;5.864;2023-04-30T06:57:47;101777.81;;;11.13;77.00
48204;BME280;33994;50.998;5.864;2023-04-30T07:00:50;101783.06;;;11.22;76.33
48204;BME280;33994;50.998;5.864;2023-04-30T07:03:53;101783.91;;;11.33;75.82
48204;BME280;33994;50.998;5.864;2023-04-30T07:06:58;101784.75;;;11.38;75.81
48204;BME280;33994;50.998;5.864;2023-04-30T07:10:01;101784.75;;;11.44;75.46
48204;BME280;33994;50.998;5.864;2023-04-30T07:13:04;101788.28;;;11.30;75.66
48204;BME280;33994;50.998;5.864;2023-04-30T07:16:07;101790.06;;;11.14;76.11
48204;BME280;33994;50.998;5.864;2023-04-30T07:19:10;101791.78;;;11.30;76.35
48204;BME280;33994;50.998;5.864;2023-04-30T07:22:15;101790.81;;;11.56;75.65
48204;BME280;33994;50.998;5.864;2023-04-30T07:25:20;101786.38;;;11.76;75.05
48204;BME280;33994;50.998;5.864;2023-04-30T07:28:23;101786.31;;;11.85;74.65
48204;BME280;33994;50.998;5.864;2023-04-30T07:31:27;101781.03;;;11.93;74.41
48204;BME280;33994;50.998;5.864;2023-04-30T07:34:30;101773.13;;;12.01;73.73
48204;BME280;33994;50.998;5.864;2023-04-30T07:37:34;101776.63;;;11.97;73.97
48204;BME280;33994;50.998;5.864;2023-04-30T07:40:38;101775.72;;;12.04;74.03
48204;BME280;33994;50.998;5.864;2023-04-30T07:43:41;101772.22;;;12.05;73.79
48204;BME280;33994;50.998;5.864;2023-04-30T07:46:44;101771.38;;;12.00;74.05
48204;BME280;33994;50.998;5.864;2023-04-30T07:49:48;101771.38;;;12.00;74.13
48204;BME280;33994;50.998;5.864;2023-04-30T07:52:52;101767.84;;;12.04;74.32
48204;BME280;33994;50.998;5.864;2023-04-30T07:55:55;101765.13;;;12.19;74.27
48204;BME280;33994;50.998;5.864;2023-04-30T07:58:58;101757.22;;;12.33;73.72
48204;BME280;33994;50.998;5.864;2023-04-30T08:02:01;101764.13;;;12.45;73.79
48204;BME280;33994;50.998;5.864;2023-04-30T08:05:05;101766.66;;;12.57;73.32
48204;BME280;33994;50.998;5.864;2023-04-30T08:08:10;101763.13;;;12.59;73.46
48204;BME280;33994;50.998;5.864;2023-04-30T08:11:13;101761.34;;;12.63;73.26
48204;BME280;33994;50.998;5.864;2023-04-30T08:14:16;101771.69;;;12.80;72.82
48204;BME280;33994;50.998;5.864;2023-04-30T08:17:19;101771.53;;;12.95;72.26
48204;BME280;33994;50.998;5.864;2023-04-30T08:20:23;101770.56;;;13.08;71.70
48204;BME280;33994;50.998;5.864;2023-04-30T08:23:27;101766.06;;;13.18;71.11
48204;BME280;33994;50.998;5.864;2023-04-30T08:26:30;101763.38;;;13.24;70.38
48204;BME280;33994;50.998;5.864;2023-04-30T08:29:34;101758.94;;;13.29;69.94
48204;BME280;33994;50.998;5.864;2023-04-30T08:32:37;101764.09;;;13.38;69.30
48204;BME280;33994;50.998;5.864;2023-04-30T08:35:40;101765.81;;;13.43;68.32
48204;BME280;33994;50.998;5.864;2023-04-30T08:38:45;101762.25;;;13.45;67.62
48204;BME280;33994;50.998;5.864;2023-04-30T08:41:51;101760.44;;;13.49;67.29
48204;BME280;33994;50.998;5.864;2023-04-30T08:44:57;101753.47;;;13.48;67.64
48204;BME280;33994;50.998;5.864;2023-04-30T08:48:04;101763.06;;;13.53;67.59
48204;BME280;33994;50.998;5.864;2023-04-30T08:51:11;101756.91;;;13.56;66.34
48204;BME280;33994;50.998;5.864;2023-04-30T08:54:17;101757.75;;;13.58;65.65
48204;BME280;33994;50.998;5.864;2023-04-30T08:57:20;101749.81;;;13.61;65.81
48204;BME280;33994;50.998;5.864;2023-04-30T09:00:24;101751.47;;;13.68;65.75
48204;BME280;33994;50.998;5.864;2023-04-30T09:03:27;101747.97;;;13.69;64.53
48204;BME280;33994;50.998;5.864;2023-04-30T09:06:30;101751.47;;;13.68;64.27
48204;BME280;33994;50.998;5.864;2023-04-30T09:09:38;101750.63;;;13.69;64.88
48204;BME280;33994;50.998;5.864;2023-04-30T09:12:40;101753.22;;;13.71;65.70
48204;BME280;33994;50.998;5.864;2023-04-30T09:15:44;101740.00;;;13.75;65.71
48204;BME280;33994;50.998;5.864;2023-04-30T09:18:47;101754.84;;;13.79;65.65
48204;BME280;33994;50.998;5.864;2023-04-30T09:21:51;101749.50;;;13.85;65.67
48204;BME280;33994;50.998;5.864;2023-04-30T09:24:55;101745.03;;;13.92;65.21
48204;BME280;33994;50.998;5.864;2023-04-30T09:28:06;101744.94;;;13.98;64.39
48204;BME280;33994;50.998;5.864;2023-04-30T09:31:18;101742.28;;;14.00;63.42
48204;BME280;33994;50.998;5.864;2023-04-30T09:34:32;101738.00;;;13.93;62.45
48204;BME280;33994;50.998;5.864;2023-04-30T09:37:36;101742.38;;;13.94;63.13
48204;BME280;33994;50.998;5.864;2023-04-30T09:40:41;101737.03;;;14.00;63.86
48204;BME280;33994;50.998;5.864;2023-04-30T09:43:44;101740.47;;;14.05;63.50
48204;BME280;33994;50.998;5.864;2023-04-30T09:46:49;101735.16;;;14.08;63.38
48204;BME280;33994;50.998;5.864;2023-04-30T09:49:52;101740.41;;;14.08;63.13
48204;BME280;33994;50.998;5.864;2023-04-30T09:53:04;101735.13;;;14.11;61.45
48204;BME280;33994;50.998;5.864;2023-04-30T09:56:10;101736.81;;;14.15;61.91
48204;BME280;33994;50.998;5.864;2023-04-30T09:59:14;101734.97;;;14.20;61.69
48204;BME280;33994;50.998;5.864;2023-04-30T10:02:19;101736.69;;;14.21;60.26
48204;BME280;33994;50.998;5.864;2023-04-30T10:05:24;101734.09;;;14.18;60.05
48204;BME280;33994;50.998;5.864;2023-04-30T10:08:30;101729.75;;;14.19;58.84
48204;BME280;33994;50.998;5.864;2023-04-30T10:11:37;101720.00;;;14.22;58.61
48204;BME280;33994;50.998;5.864;2023-04-30T10:14:47;101720.91;;;14.21;57.33
48204;BME280;33994;50.998;5.864;2023-04-30T10:17:56;101720.91;;;14.21;56.80
48204;BME280;33994;50.998;5.864;2023-04-30T10:21:02;101717.34;;;14.25;55.92
48204;BME280;33994;50.998;5.864;2023-04-30T10:24:08;101709.31;;;14.33;56.40
48204;BME280;33994;50.998;5.864;2023-04-30T10:27:13;101715.44;;;14.35;56.44
48204;BME280;33994;50.998;5.864;2023-04-30T10:30:16;101715.41;;;14.36;55.88
48204;BME280;33994;50.998;5.864;2023-04-30T10:33:25;101705.72;;;14.37;54.66
48204;BME280;33994;50.998;5.864;2023-04-30T10:36:38;101718.94;;;14.35;53.82
48204;BME280;33994;50.998;5.864;2023-04-30T10:39:41;101703.97;;;14.38;52.99
48204;BME280;33994;50.998;5.864;2023-04-30T10:42:47;101702.22;;;14.38;52.88
48204;BME280;33994;50.998;5.864;2023-04-30T10:45:50;101699.59;;;14.36;53.70
48204;BME280;33994;50.998;5.864;2023-04-30T10:48:53;101695.16;;;14.42;54.13
48204;BME280;33994;50.998;5.864;2023-04-30T10:51:58;101688.03;;;14.45;53.74
48204;BME280;33994;50.998;5.864;2023-04-30T10:55:04;101681.06;;;14.46;53.19
48204;BME280;33994;50.998;5.864;2023-04-30T10:58:22;101678.34;;;14.49;51.45
48204;BME280;33994;50.998;5.864;2023-04-30T11:01:26;101667.72;;;14.55;53.62
48204;BME280;33994;50.998;5.864;2023-04-30T11:04:29;101664.94;;;14.63;53.81
48204;BME280;33994;50.998;5.864;2023-04-30T11:07:32;101661.38;;;14.68;54.03
48204;BME280;33994;50.998;5.864;2023-04-30T11:10:35;101664.78;;;14.73;54.10
48204;BME280;33994;50.998;5.864;2023-04-30T11:13:42;101662.09;;;14.76;53.91
48204;BME280;33994;50.998;5.864;2023-04-30T11:16:48;101658.50;;;14.80;53.24
48204;BME280;33994;50.998;5.864;2023-04-30T11:19:52;101658.50;;;14.80;53.39
48204;BME280;33994;50.998;5.864;2023-04-30T11:23:08;101655.81;;;14.83;52.61
48204;BME280;33994;50.998;5.864;2023-04-30T11:26:11;101656.75;;;14.79;53.22
48204;BME280;33994;50.998;5.864;2023-04-30T11:29:17;101653.19;;;14.83;52.18
48204;BME280;33994;50.998;5.864;2023-04-30T11:32:23;101648.69;;;14.89;50.99
48204;BME280;33994;50.998;5.864;2023-04-30T11:35:27;101641.66;;;14.89;51.76
48204;BME280;33994;50.998;5.864;2023-04-30T11:38:33;101641.66;;;14.89;52.01
48204;BME280;33994;50.998;5.864;2023-04-30T11:41:39;101625.84;;;14.89;52.00
48204;BME280;33994;50.998;5.864;2023-04-30T11:44:44;101628.53;;;14.88;52.22
48204;BME280;33994;50.998;5.864;2023-04-30T11:47:49;101623.31;;;14.84;51.15
48204;BME280;33994;50.998;5.864;2023-04-30T11:50:53;101625.75;;;14.94;51.06
48204;BME280;33994;50.998;5.864;2023-04-30T11:53:56;101618.66;;;14.97;50.15
48204;BME280;33994;50.998;5.864;2023-04-30T11:56:59;101614.25;;;14.98;50.38
48204;BME280;33994;50.998;5.864;2023-04-30T12:00:14;101613.25;;;15.03;49.92
48204;BME280;33994;50.998;5.864;2023-04-30T12:03:18;101603.59;;;15.04;50.17
48204;BME280;33994;50.998;5.864;2023-04-30T12:06:22;101602.63;;;15.08;49.88
48204;BME280;33994;50.998;5.864;2023-04-30T12:09:26;101595.59;;;15.08;50.38
48204;BME280;33994;50.998;5.864;2023-04-30T12:12:29;101604.25;;;15.14;50.27
48204;BME280;33994;50.998;5.864;2023-04-30T12:15:33;101591.06;;;15.15;50.21
48204;BME280;33994;50.998;5.864;2023-04-30T12:18:37;101598.84;;;15.20;49.05
48204;BME280;33994;50.998;5.864;2023-04-30T12:21:41;101594.44;;;15.20;48.44
48204;BME280;33994;50.998;5.864;2023-04-30T12:24:44;101590.09;;;15.19;49.05
48204;BME280;33994;50.998;5.864;2023-04-30T12:27:48;101586.53;;;15.20;49.16
48204;BME280;33994;50.998;5.864;2023-04-30T12:30:53;101583.00;;;15.21;49.42
48204;BME280;33994;50.998;5.864;2023-04-30T12:33:56;101587.22;;;15.28;49.83
48204;BME280;33994;50.998;5.864;2023-04-30T12:37:00;101592.50;;;15.30;50.23
48204;BME280;33994;50.998;5.864;2023-04-30T12:40:07;101578.44;;;15.29;50.23
48204;BME280;33994;50.998;5.864;2023-04-30T12:43:14;101568.84;;;15.27;50.37
48204;BME280;33994;50.998;5.864;2023-04-30T12:46:26;101574.69;;;15.40;50.33
48204;BME280;33994;50.998;5.864;2023-04-30T12:49:33;101563.94;;;15.49;50.60
48204;BME280;33994;50.998;5.864;2023-04-30T12:52:36;101560.25;;;15.56;50.64
48204;BME280;33994;50.998;5.864;2023-04-30T12:55:40;101554.69;;;15.67;50.33
48204;BME280;33994;50.998;5.864;2023-04-30T12:58:44;101569.44;;;15.77;50.61
48204;BME280;33994;50.998;5.864;2023-04-30T13:01:49;101551.03;;;15.75;50.50
48204;BME280;33994;50.998;5.864;2023-04-30T13:04:53;101550.19;;;15.73;50.05
48204;BME280;33994;50.998;5.864;2023-04-30T13:08:00;101545.78;;;15.72;50.34
48204;BME280;33994;50.998;5.864;2023-04-30T13:11:04;101544.94;;;15.72;50.42
48204;BME280;33994;50.998;5.864;2023-04-30T13:14:07;101542.31;;;15.70;50.65
48204;BME280;33994;50.998;5.864;2023-04-30T13:17:11;101544.94;;;15.70;50.20
48204;BME280;33994;50.998;5.864;2023-04-30T13:20:15;101543.13;;;15.74;49.96
48204;BME280;33994;50.998;5.864;2023-04-30T13:23:18;101538.66;;;15.77;50.48
48204;BME280;33994;50.998;5.864;2023-04-30T13:26:21;101529.81;;;15.78;50.60
48204;BME280;33994;50.998;5.864;2023-04-30T13:29:24;101543.84;;;15.80;50.82
48204;BME280;33994;50.998;5.864;2023-04-30T13:32:29;101521.03;;;15.79;50.33
48204;BME280;33994;50.998;5.864;2023-04-30T13:35:32;101516.56;;;15.81;50.46
48204;BME280;33994;50.998;5.864;2023-04-30T13:38:35;101513.78;;;15.88;50.27
48204;BME280;33994;50.998;5.864;2023-04-30T13:41:38;101508.44;;;15.91;50.19
48204;BME280;33994;50.998;5.864;2023-04-30T13:44:41;101515.44;;;15.92;49.64
48204;BME280;33994;50.998;5.864;2023-04-30T13:47:46;101525.00;;;15.96;49.76
48204;BME280;33994;50.998;5.864;2023-04-30T13:50:50;101510.88;;;15.98;50.09
48204;BME280;33994;50.998;5.864;2023-04-30T13:53:53;101500.25;;;16.00;50.60
48204;BME280;33994;50.998;5.864;2023-04-30T13:56:57;101500.19;;;16.03;50.72
48204;BME280;33994;50.998;5.864;2023-04-30T14:00:01;101503.63;;;16.05;51.17
48204;BME280;33994;50.998;5.864;2023-04-30T14:03:05;101497.47;;;16.06;50.47
48204;BME280;33994;50.998;5.864;2023-04-30T14:06:08;101495.72;;;16.05;50.45
48204;BME280;33994;50.998;5.864;2023-04-30T14:09:11;101486.03;;;16.05;50.59
48204;BME280;33994;50.998;5.864;2023-04-30T14:12:15;101484.16;;;16.11;50.58
48204;BME280;33994;50.998;5.864;2023-04-30T14:15:18;101480.50;;;16.15;50.83
48204;BME280;33994;50.998;5.864;2023-04-30T14:18:23;101478.56;;;16.21;50.87
48204;BME280;33994;50.998;5.864;2023-04-30T14:21:26;101477.66;;;16.22;50.73
48204;BME280;33994;50.998;5.864;2023-04-30T14:24:29;101483.81;;;16.23;50.49
48204;BME280;33994;50.998;5.864;2023-04-30T14:27:32;101468.91;;;16.20;50.29
48204;BME280;33994;50.998;5.864;2023-04-30T14:30:35;101471.59;;;16.19;50.62
48204;BME280;33994;50.998;5.864;2023-04-30T14:33:40;101467.25;;;16.18;50.79
48204;BME280;33994;50.998;5.864;2023-04-30T14:36:43;101476.94;;;16.17;50.63
48204;BME280;33994;50.998;5.864;2023-04-30T14:39:46;101465.53;;;16.15;50.57
48204;BME280;33994;50.998;5.864;2023-04-30T14:42:49;101467.19;;;16.19;50.59
48204;BME280;33994;50.998;5.864;2023-04-30T14:45:52;101453.06;;;16.20;50.67
48204;BME280;33994;50.998;5.864;2023-04-30T14:48:56;101461.91;;;16.19;50.40
48204;BME280;33994;50.998;5.864;2023-04-30T14:51:59;101441.72;;;16.17;50.40
48204;BME280;33994;50.998;5.864;2023-04-30T14:55:03;101437.34;;;16.17;50.68
48204;BME280;33994;50.998;5.864;2023-04-30T14:58:06;101442.63;;;16.17;51.07
48204;BME280;33994;50.998;5.864;2023-04-30T15:01:10;101435.50;;;16.21;50.94
48204;BME280;33994;50.998;5.864;2023-04-30T15:04:14;101434.56;;;16.22;50.41
48204;BME280;33994;50.998;5.864;2023-04-30T15:07:18;101435.56;;;16.18;50.92
48204;BME280;33994;50.998;5.864;2023-04-30T15:10:21;101432.06;;;16.17;51.19
48204;BME280;33994;50.998;5.864;2023-04-30T15:13:25;101422.31;;;16.19;50.96
48204;BME280;33994;50.998;5.864;2023-04-30T15:16:28;101423.03;;;16.24;50.42
48204;BME280;33994;50.998;5.864;2023-04-30T15:19:32;101423.81;;;16.28;50.32
48204;BME280;33994;50.998;5.864;2023-04-30T15:22:35;101421.16;;;16.29;50.18
48204;BME280;33994;50.998;5.864;2023-04-30T15:25:39;101415.97;;;16.26;50.41
48204;BME280;33994;50.998;5.864;2023-04-30T15:28:42;101419.38;;;16.30;50.35
48204;BME280;33994;50.998;5.864;2023-04-30T15:31:45;101424.59;;;16.32;50.47
48204;BME280;33994;50.998;5.864;2023-04-30T15:34:49;101423.66;;;16.34;50.25
48204;BME280;33994;50.998;5.864;2023-04-30T15:37:53;101412.16;;;16.37;50.47
48204;BME280;33994;50.998;5.864;2023-04-30T15:40:56;101408.50;;;16.41;50.04
48204;BME280;33994;50.998;5.864;2023-04-30T15:43:59;101402.44;;;16.37;50.12
48204;BME280;33994;50.998;5.864;2023-04-30T15:47:02;101399.75;;;16.39;49.63
48204;BME280;33994;50.998;5.864;2023-04-30T15:50:08;101396.97;;;16.43;49.08
48204;BME280;33994;50.998;5.864;2023-04-30T15:53:11;101393.31;;;16.47;49.44
48204;BME280;33994;50.998;5.864;2023-04-30T15:56:14;101385.31;;;16.50;49.21
48204;BME280;33994;50.998;5.864;2023-04-30T15:59:17;101387.09;;;16.50;49.32
48204;BME280;33994;50.998;5.864;2023-04-30T16:02:20;101388.25;;;16.41;49.89
48204;BME280;33994;50.998;5.864;2023-04-30T16:05:25;101381.25;;;16.40;49.74
48204;BME280;33994;50.998;5.864;2023-04-30T16:08:28;101387.47;;;16.38;50.20